Time;durP1;ratioP1;P1;durP2;ratioP2;P2;SDS_P1;SDS_P2;PMS_P1;PMS_P2;Temp;Humidity;BMP_temperature;BMP_pressure;BME280_temperature;BME280_humidity;BME280_pressure;Samples;Min_cycle;Max_cycle;Signal;HPM_P1;HPM_P2
2022/04/10 00:02:20;;;;;;;4.72;4.32;;;3.50;98.80;;;;;;602197;238;26557;-63
2022/04/10 00:04:48;;;;;;;3.92;3.55;;;3.50;98.90;;;;;;602184;239;26560;-63
2022/04/10 00:07:16;;;;;;;4.32;4.03;;;3.60;99.00;;;;;;601936;239;26613;-63
2022/04/10 00:09:44;;;;;;;4.40;4.00;;;3.50;98.90;;;;;;601828;239;26594;-61
2022/04/10 00:12:11;;;;;;;4.82;4.43;;;3.60;99.00;;;;;;601862;239;27236;-62
2022/04/10 00:14:39;;;;;;;3.40;2.97;;;3.60;98.80;;;;;;601822;238;26596;-62
2022/04/10 00:17:07;;;;;;;4.30;3.90;;;3.70;99.00;;;;;;601653;238;26668;-63
2022/04/10 00:19:34;;;;;;;3.83;3.53;;;3.60;99.00;;;;;;601553;237;26664;-62
2022/04/10 00:22:02;;;;;;;4.45;4.05;;;3.50;99.10;;;;;;601592;239;26597;-62
2022/04/10 00:24:28;;;;;;;4.45;4.05;;;3.50;99.20;;;;;;601452;232;26861;-62
2022/04/10 00:26:56;;;;;;;3.75;3.37;;;3.40;99.30;;;;;;601572;239;26627;-62
2022/04/10 00:29:23;;;;;;;4.12;3.78;;;3.40;99.40;;;;;;601545;239;26847;-62
2022/04/10 00:31:51;;;;;;;4.10;3.58;;;3.30;99.40;;;;;;601561;239;26631;-62
2022/04/10 00:34:18;;;;;;;4.15;3.78;;;3.40;99.50;;;;;;601466;239;26639;-62
2022/04/10 00:36:46;;;;;;;3.20;3.00;;;3.40;99.70;;;;;;601549;237;26648;-62
2022/04/10 00:39:14;;;;;;;2.90;2.70;;;3.50;99.40;;;;;;601566;238;26646;-62
2022/04/10 00:41:41;;;;;;;3.70;2.87;;;3.50;99.40;;;;;;601554;239;26639;-63
2022/04/10 00:44:08;;;;;;;4.07;3.60;;;3.50;99.30;;;;;;601626;239;26938;-63
2022/04/10 00:46:35;;;;;;;4.50;2.90;;;3.60;99.50;;;;;;601396;239;26839;-63
2022/04/10 00:49:02;;;;;;;3.90;3.60;;;3.70;99.10;;;;;;601514;239;26628;-63
2022/04/10 00:54:02;;;;;;;2.87;2.55;;;3.80;98.90;;;;;;602944;236;26641;-63
2022/04/10 00:56:30;;;;;;;4.50;4.10;;;3.80;98.90;;;;;;602584;237;26939;-63
2022/04/10 00:58:57;;;;;;;3.80;3.50;;;3.60;99.00;;;;;;602469;237;26595;-63
2022/04/10 01:01:24;;;;;;;3.03;2.83;;;3.50;99.30;;;;;;602239;239;26601;-62
2022/04/10 01:03:52;;;;;;;5.43;3.65;;;3.40;99.80;;;;;;602067;239;26581;-63
2022/04/10 01:06:19;;;;;;;3.28;3.08;;;3.40;99.70;;;;;;602126;239;26882;-62
2022/04/10 01:08:46;;;;;;;3.20;3.00;;;3.30;99.90;;;;;;602241;237;26580;-62
2022/04/10 01:11:14;;;;;;;3.65;3.25;;;3.30;99.90;;;;;;601917;239;26606;-62
2022/04/10 01:13:41;;;;;;;3.67;3.37;;;3.30;99.90;;;;;;601979;237;26841;-63
2022/04/10 01:16:09;;;;;;;2.80;2.60;;;3.20;99.90;;;;;;601815;237;26567;-62
2022/04/10 01:18:37;;;;;;;3.17;2.67;;;3.20;99.90;;;;;;601838;239;26602;-62
2022/04/10 01:21:04;;;;;;;3.03;2.83;;;3.10;99.90;;;;;;601840;237;26586;-63
2022/04/10 01:23:32;;;;;;;2.87;2.55;;;3.20;99.90;;;;;;601864;237;26547;-63
2022/04/10 01:26:00;;;;;;;3.75;3.28;;;3.20;99.90;;;;;;601817;237;26581;-63
2022/04/10 01:28:27;;;;;;;2.45;2.25;;;3.20;99.90;;;;;;601651;239;26883;-63
2022/04/10 01:30:54;;;;;;;3.22;3.00;;;3.30;99.90;;;;;;601556;239;26646;-63
2022/04/10 01:33:21;;;;;;;3.37;3.08;;;3.30;99.90;;;;;;601576;239;26850;-63
2022/04/10 01:35:49;;;;;;;2.70;2.17;;;3.40;99.90;;;;;;601570;239;26723;-63
2022/04/10 01:38:16;;;;;;;2.90;2.70;;;3.30;99.90;;;;;;601551;237;26869;-64
2022/04/10 01:40:43;;;;;;;4.55;2.83;;;3.30;99.90;;;;;;601512;237;26657;-63
2022/04/10 01:43:10;;;;;;;4.78;3.10;;;3.20;99.90;;;;;;601518;239;26631;-64
2022/04/10 01:45:38;;;;;;;12.05;3.22;;;3.10;99.90;;;;;;601481;239;26645;-64
2022/04/10 01:48:06;;;;;;;2.62;2.05;;;3.10;99.90;;;;;;601514;238;26633;-64
2022/04/10 01:50:33;;;;;;;4.12;2.25;;;3.00;99.90;;;;;;601843;239;26832;-63
2022/04/10 01:53:00;;;;;;;2.92;2.70;;;3.00;99.90;;;;;;601917;239;26662;-64
2022/04/10 01:55:27;;;;;;;7.87;3.47;;;3.00;99.90;;;;;;601392;238;26619;-63
2022/04/10 01:57:54;;;;;;;3.33;2.75;;;2.90;99.90;;;;;;601457;239;26850;-64
2022/04/10 02:00:21;;;;;;;5.43;2.40;;;2.90;99.90;;;;;;601552;237;26636;-63
2022/04/10 02:02:49;;;;;;;4.87;3.22;;;2.90;99.90;;;;;;601783;232;26632;-63
2022/04/10 02:05:17;;;;;;;2.55;2.33;;;2.90;99.90;;;;;;603002;238;26617;-64
2022/04/10 02:07:45;;;;;;;3.22;2.50;;;2.90;99.90;;;;;;602555;239;26610;-63
2022/04/10 02:10:13;;;;;;;3.90;2.33;;;2.80;99.90;;;;;;602417;239;26603;-64
2022/04/10 02:12:40;;;;;;;2.42;2.20;;;2.80;99.90;;;;;;602247;237;27056;-63
2022/04/10 02:15:07;;;;;;;5.87;2.28;;;2.80;99.90;;;;;;602099;235;26584;-63
2022/04/10 02:17:35;;;;;;;3.12;2.83;;;2.90;99.90;;;;;;610334;235;26626;-64
2022/04/10 02:20:03;;;;;;;2.87;1.98;;;2.90;99.90;;;;;;610326;236;26955;-63
2022/04/10 02:22:30;;;;;;;4.18;2.90;;;2.90;99.90;;;;;;610039;236;26676;-64
2022/04/10 02:24:57;;;;;;;3.55;2.55;;;2.90;99.90;;;;;;609942;235;26870;-63
2022/04/10 02:27:24;;;;;;;4.80;2.60;;;2.90;99.90;;;;;;610077;235;26648;-64
2022/04/10 02:29:52;;;;;;;3.47;2.45;;;3.00;99.90;;;;;;610175;236;26870;-64
2022/04/10 02:32:19;;;;;;;2.20;1.90;;;3.00;99.90;;;;;;610133;236;26637;-64
2022/04/10 02:34:47;;;;;;;2.45;2.22;;;3.00;99.90;;;;;;610121;236;26644;-64
2022/04/10 02:37:15;;;;;;;4.53;2.78;;;3.00;99.90;;;;;;610165;235;26657;-64
2022/04/10 02:39:43;;;;;;;2.53;2.20;;;3.10;99.90;;;;;;610052;235;26633;-63
2022/04/10 02:42:09;;;;;;;2.65;2.45;;;3.20;99.90;;;;;;609779;235;27240;-63
2022/04/10 02:44:36;;;;;;;2.83;2.40;;;3.30;99.90;;;;;;609814;236;26580;-63
2022/04/10 02:47:05;;;;;;;2.65;2.42;;;3.30;99.90;;;;;;609883;236;26621;-63
2022/04/10 02:49:33;;;;;;;2.62;2.33;;;3.20;99.90;;;;;;609928;236;26598;-63
2022/04/10 02:52:00;;;;;;;3.40;2.47;;;3.20;99.90;;;;;;609832;236;26593;-63
2022/04/10 02:54:27;;;;;;;3.47;1.83;;;3.20;99.90;;;;;;609833;235;26615;-63
2022/04/10 02:56:54;;;;;;;2.92;2.62;;;3.30;99.90;;;;;;609902;236;26888;-63
2022/04/10 02:59:21;;;;;;;2.53;2.33;;;3.30;99.90;;;;;;609887;236;26575;-63
2022/04/10 03:01:50;;;;;;;2.55;2.30;;;3.30;99.90;;;;;;609883;236;26585;-64
2022/04/10 03:04:17;;;;;;;3.33;2.40;;;3.40;99.80;;;;;;609834;236;26593;-64
2022/04/10 03:06:45;;;;;;;2.00;1.80;;;3.40;99.80;;;;;;609914;236;26600;-64
2022/04/10 03:09:12;;;;;;;2.30;2.10;;;3.40;99.70;;;;;;609888;235;26648;-64
2022/04/10 03:11:39;;;;;;;4.25;2.55;;;3.40;99.90;;;;;;609871;236;26581;-64
2022/04/10 03:14:06;;;;;;;2.42;2.22;;;3.40;99.70;;;;;;609886;236;27288;-64
2022/04/10 03:16:35;;;;;;;2.65;2.10;;;3.20;99.70;;;;;;611570;233;26648;-64
2022/04/10 03:19:03;;;;;;;3.58;2.40;;;3.20;99.80;;;;;;610989;235;26602;-64
2022/04/10 03:21:30;;;;;;;2.60;2.40;;;3.20;99.80;;;;;;610761;235;26592;-64
2022/04/10 03:23:57;;;;;;;2.40;2.20;;;3.20;99.70;;;;;;610566;235;26584;-64
2022/04/10 03:26:25;;;;;;;2.33;2.03;;;3.30;99.80;;;;;;610313;235;26618;-64
2022/04/10 03:28:52;;;;;;;4.35;2.35;;;3.40;99.70;;;;;;610288;236;26869;-64
2022/04/10 03:31:20;;;;;;;4.95;2.37;;;3.40;99.50;;;;;;610282;236;26591;-64
2022/04/10 03:33:47;;;;;;;3.25;2.15;;;3.30;99.60;;;;;;610116;236;27401;-64
2022/04/10 03:36:14;;;;;;;4.32;2.30;;;3.30;99.80;;;;;;610166;236;26663;-64
2022/04/10 03:38:42;;;;;;;2.20;2.00;;;3.20;99.80;;;;;;610109;236;26648;-64
2022/04/10 03:41:09;;;;;;;2.42;2.20;;;3.20;99.80;;;;;;610123;235;26874;-64
2022/04/10 03:43:36;;;;;;;2.45;2.22;;;3.20;99.90;;;;;;610129;235;26648;-64
2022/04/10 03:46:04;;;;;;;2.50;2.30;;;3.10;99.80;;;;;;610131;236;26900;-64
2022/04/10 03:48:31;;;;;;;2.50;2.25;;;3.10;99.90;;;;;;610089;236;26648;-64
2022/04/10 03:50:58;;;;;;;3.42;2.00;;;3.10;99.90;;;;;;610055;235;26584;-64
2022/04/10 03:53:26;;;;;;;2.30;1.92;;;3.20;99.70;;;;;;609859;236;26589;-63
2022/04/10 03:55:53;;;;;;;3.00;2.00;;;3.20;99.70;;;;;;609840;236;26647;-64
2022/04/10 03:58:20;;;;;;;2.45;2.25;;;3.20;99.60;;;;;;609899;236;26576;-64
2022/04/10 04:00:48;;;;;;;3.67;2.42;;;3.20;99.70;;;;;;609817;236;26860;-64
2022/04/10 04:03:15;;;;;;;2.97;2.20;;;3.20;99.70;;;;;;609909;236;26572;-64
2022/04/10 04:05:42;;;;;;;4.28;2.15;;;3.10;99.70;;;;;;609790;235;26862;-64
2022/04/10 04:08:10;;;;;;;2.33;2.20;;;3.20;99.30;;;;;;609840;235;26610;-64
2022/04/10 04:10:38;;;;;;;7.55;2.08;;;3.20;99.40;;;;;;609887;236;26595;-64
2022/04/10 04:13:05;;;;;;;2.87;1.90;;;3.20;99.40;;;;;;609869;236;26600;-64
2022/04/10 04:15:32;;;;;;;3.75;2.33;;;3.20;99.40;;;;;;609847;235;26874;-64
2022/04/10 04:18:00;;;;;;;3.05;2.12;;;3.20;99.30;;;;;;609788;236;26577;-64
2022/04/10 04:20:28;;;;;;;2.25;2.10;;;3.20;99.20;;;;;;609883;236;26614;-64
2022/04/10 04:22:56;;;;;;;2.75;2.30;;;3.20;99.10;;;;;;609900;236;26548;-64
2022/04/10 04:25:23;;;;;;;2.55;2.30;;;3.20;99.10;;;;;;609792;235;26789;-64
2022/04/10 04:27:51;;;;;;;3.40;2.10;;;3.20;99.10;;;;;;611425;233;26625;-64
2022/04/10 04:30:18;;;;;;;4.43;1.80;;;3.30;99.10;;;;;;611091;235;27137;-64
2022/04/10 04:32:46;;;;;;;3.67;2.17;;;3.30;98.90;;;;;;610711;235;26592;-64
2022/04/10 04:35:15;;;;;;;4.40;2.20;;;3.30;98.80;;;;;;610641;235;26580;-64
2022/04/10 04:37:41;;;;;;;2.33;2.00;;;3.20;98.80;;;;;;610430;236;26644;-64
2022/04/10 04:40:09;;;;;;;3.67;2.30;;;3.20;99.00;;;;;;610492;236;26860;-64
2022/04/10 04:42:36;;;;;;;1.77;1.67;;;3.20;98.80;;;;;;610836;236;26557;-64
2022/04/10 04:45:04;;;;;;;2.85;2.20;;;3.30;99.00;;;;;;610619;235;26839;-64
2022/04/10 04:47:31;;;;;;;2.85;1.90;;;3.30;98.80;;;;;;610556;236;26651;-64
2022/04/10 04:49:58;;;;;;;1.85;1.73;;;3.40;98.60;;;;;;610539;236;26871;-64
2022/04/10 04:52:25;;;;;;;2.10;1.90;;;3.30;98.70;;;;;;610429;236;26645;-64
2022/04/10 04:54:53;;;;;;;3.83;2.10;;;3.20;99.10;;;;;;610143;235;26868;-63
2022/04/10 04:57:21;;;;;;;2.37;2.03;;;3.20;98.80;;;;;;610185;235;26653;-64
2022/04/10 04:59:49;;;;;;;2.08;1.98;;;3.20;98.90;;;;;;610148;236;26637;-63
2022/04/10 05:02:17;;;;;;;3.05;1.87;;;3.20;98.80;;;;;;610114;236;26675;-63
2022/04/10 05:04:44;;;;;;;2.00;1.90;;;3.10;98.80;;;;;;609863;236;26774;-63
2022/04/10 05:07:11;;;;;;;3.47;1.70;;;3.10;99.00;;;;;;609840;236;26644;-63
2022/04/10 05:09:38;;;;;;;3.35;1.80;;;3.00;99.10;;;;;;609848;236;27148;-63
2022/04/10 05:12:07;;;;;;;1.90;1.70;;;3.10;99.30;;;;;;609893;236;26663;-63
2022/04/10 05:14:34;;;;;;;3.00;2.12;;;3.00;99.20;;;;;;609877;235;26550;-64
2022/04/10 05:17:01;;;;;;;4.18;2.30;;;3.10;99.30;;;;;;609864;236;26867;-63
2022/04/10 05:19:29;;;;;;;2.37;1.90;;;3.20;99.20;;;;;;609879;236;26581;-63
2022/04/10 05:21:57;;;;;;;2.10;1.83;;;3.30;99.10;;;;;;609868;236;26611;-63
2022/04/10 05:24:25;;;;;;;4.45;2.30;;;3.40;99.00;;;;;;609759;236;26565;-63
2022/04/10 05:26:52;;;;;;;2.65;2.35;;;3.40;99.00;;;;;;609816;236;26972;-63
2022/04/10 05:29:20;;;;;;;1.73;1.62;;;3.60;98.80;;;;;;609898;236;26598;-62
2022/04/10 05:31:47;;;;;;;2.85;1.83;;;3.70;98.60;;;;;;609858;236;26928;-63
2022/04/10 05:34:14;;;;;;;2.30;1.85;;;3.60;98.30;;;;;;609809;235;26585;-64
2022/04/10 05:36:41;;;;;;;3.10;2.12;;;3.50;98.30;;;;;;609876;235;26566;-63
2022/04/10 05:39:09;;;;;;;2.75;1.67;;;3.50;98.50;;;;;;611251;233;26644;-63
2022/04/10 05:41:36;;;;;;;2.53;1.80;;;3.50;98.50;;;;;;611072;235;26615;-64
2022/04/10 05:44:04;;;;;;;3.12;1.80;;;3.60;98.00;;;;;;610742;235;26592;-63
2022/04/10 05:46:31;;;;;;;2.53;1.70;;;3.80;98.00;;;;;;610766;235;26575;-63
2022/04/10 05:48:58;;;;;;;1.85;1.75;;;3.90;97.80;;;;;;610487;236;26909;-64
2022/04/10 05:51:26;;;;;;;1.87;1.77;;;4.00;97.50;;;;;;610447;236;26572;-64
2022/04/10 05:53:53;;;;;;;3.33;2.15;;;4.10;97.20;;;;;;610464;235;26811;-63
2022/04/10 05:56:21;;;;;;;2.47;1.87;;;4.00;97.20;;;;;;610281;236;26679;-63
2022/04/10 05:58:48;;;;;;;2.10;1.85;;;4.00;97.10;;;;;;610180;236;26872;-64
2022/04/10 06:01:15;;;;;;;6.05;2.40;;;4.10;97.10;;;;;;610198;232;26647;-65
2022/04/10 06:03:42;;;;;;;3.12;1.87;;;4.00;96.90;;;;;;610175;236;26701;-63
2022/04/10 06:06:10;;;;;;;1.87;1.73;;;4.10;97.00;;;;;;610069;235;26628;-62
2022/04/10 06:08:38;;;;;;;1.73;1.62;;;4.20;97.00;;;;;;610157;236;26641;-63
2022/04/10 06:11:05;;;;;;;2.08;1.90;;;4.20;96.80;;;;;;610173;236;26837;-64
2022/04/10 06:13:32;;;;;;;3.55;2.10;;;4.20;96.40;;;;;;610153;236;26638;-64
2022/04/10 06:16:00;;;;;;;1.70;1.60;;;4.20;96.60;;;;;;609804;236;27243;-63
2022/04/10 06:18:27;;;;;;;1.52;1.42;;;4.10;96.60;;;;;;609922;236;26576;-64
2022/04/10 06:20:54;;;;;;;3.17;1.77;;;4.40;96.30;;;;;;609834;236;26579;-64
2022/04/10 06:23:23;;;;;;;3.58;1.52;;;4.50;95.90;;;;;;609861;236;26589;-64
2022/04/10 06:25:49;;;;;;;1.98;1.80;;;4.40;95.80;;;;;;609794;236;26616;-64
2022/04/10 06:28:16;;;;;;;3.85;2.08;;;4.50;96.00;;;;;;609892;235;26580;-64
2022/04/10 06:30:45;;;;;;;1.92;1.83;;;4.50;95.90;;;;;;609904;236;26862;-64
2022/04/10 06:33:11;;;;;;;2.87;2.03;;;4.40;95.70;;;;;;609747;236;26572;-64
2022/04/10 06:35:39;;;;;;;2.40;2.00;;;4.50;95.60;;;;;;609827;236;26621;-64
2022/04/10 06:38:06;;;;;;;4.28;2.03;;;4.40;95.80;;;;;;609842;236;26588;-64
2022/04/10 06:40:34;;;;;;;1.87;1.77;;;4.50;95.70;;;;;;609817;231;26609;-64
2022/04/10 06:43:01;;;;;;;2.08;1.60;;;4.40;95.50;;;;;;609851;235;26855;-64
2022/04/10 06:45:28;;;;;;;3.92;1.90;;;4.50;95.40;;;;;;609794;235;26615;-64
2022/04/10 06:47:55;;;;;;;2.28;1.77;;;4.50;95.30;;;;;;609832;236;27261;-64
2022/04/10 06:50:23;;;;;;;2.80;1.70;;;4.70;95.00;;;;;;610993;233;26590;-64
2022/04/10 06:52:50;;;;;;;1.58;1.40;;;4.80;94.90;;;;;;611144;235;26576;-64
2022/04/10 06:55:18;;;;;;;2.92;2.20;;;4.80;94.70;;;;;;610732;235;26583;-63
2022/04/10 06:57:47;;;;;;;1.98;1.50;;;4.90;94.50;;;;;;610730;235;26585;-64
2022/04/10 07:00:15;;;;;;;2.42;1.58;;;4.90;94.50;;;;;;610467;235;26893;-64
2022/04/10 07:02:42;;;;;;;1.95;1.77;;;5.00;94.40;;;;;;610447;236;26596;-64
2022/04/10 07:05:09;;;;;;;9.40;2.30;;;5.10;94.40;;;;;;610431;236;26838;-64
2022/04/10 07:07:36;;;;;;;2.12;1.70;;;5.40;93.90;;;;;;610696;235;26592;-63
2022/04/10 07:10:04;;;;;;;3.85;1.77;;;5.40;93.40;;;;;;610535;235;26600;-65
2022/04/10 07:12:31;;;;;;;2.85;1.80;;;5.20;93.70;;;;;;610547;236;26603;-64
2022/04/10 07:15:00;;;;;;;3.90;1.95;;;5.30;93.50;;;;;;610295;236;26854;-65
2022/04/10 07:17:29;;;;;;;3.80;1.62;;;5.50;93.10;;;;;;610049;235;26687;-65
2022/04/10 07:19:55;;;;;;;2.87;1.95;;;5.50;93.10;;;;;;610125;235;26846;-64
2022/04/10 07:25:05;;;;;;;3.75;1.90;;;4.90;93.40;;;;;;609818;234;26658;-65
2022/04/10 07:27:33;;;;;;;5.82;2.03;;;5.10;93.30;;;;;;609892;235;26608;-65
2022/04/10 07:30:01;;;;;;;3.65;1.87;;;5.00;93.50;;;;;;609874;236;27029;-66
2022/04/10 07:32:28;;;;;;;2.50;1.70;;;5.00;93.50;;;;;;609844;236;26930;-65
2022/04/10 07:34:56;;;;;;;1.58;1.48;;;5.40;93.10;;;;;;609854;236;26577;-65
2022/04/10 07:37:24;;;;;;;2.40;1.77;;;5.50;92.90;;;;;;609845;236;26611;-64
2022/04/10 07:39:51;;;;;;;3.03;1.85;;;5.50;92.90;;;;;;609877;236;26621;-65
2022/04/10 07:42:18;;;;;;;1.55;1.42;;;5.80;92.50;;;;;;609875;236;26589;-65
2022/04/10 07:44:45;;;;;;;2.47;1.58;;;5.90;92.30;;;;;;609816;236;26811;-65
2022/04/10 07:49:46;;;;;;;3.20;1.37;;;5.90;92.10;;;;;;609819;236;26589;-65
2022/04/10 07:52:13;;;;;;;3.08;1.80;;;6.00;91.80;;;;;;609778;235;26839;-66
2022/04/10 07:54:41;;;;;;;3.03;1.98;;;6.00;91.60;;;;;;609867;236;26632;-65
2022/04/10 07:57:08;;;;;;;5.68;1.98;;;5.90;91.70;;;;;;609842;235;26608;-64
2022/04/10 07:59:36;;;;;;;3.37;2.03;;;6.00;91.70;;;;;;609858;235;26580;-65
2022/04/10 08:02:04;;;;;;;5.20;2.08;;;6.00;91.70;;;;;;611042;233;26854;-64
2022/04/10 08:04:32;;;;;;;4.18;1.90;;;5.80;92.10;;;;;;611082;235;26597;-65
2022/04/10 08:07:00;;;;;;;4.03;1.80;;;5.60;92.50;;;;;;610745;235;26607;-65
2022/04/10 08:09:27;;;;;;;1.70;1.60;;;5.50;92.40;;;;;;610706;235;26842;-65
2022/04/10 08:11:54;;;;;;;3.08;1.83;;;5.60;92.60;;;;;;610470;236;26587;-64
2022/04/10 08:14:21;;;;;;;2.40;1.80;;;5.50;92.70;;;;;;610428;230;27219;-64
2022/04/10 08:16:48;;;;;;;1.58;1.37;;;5.50;92.80;;;;;;610434;236;26605;-64
2022/04/10 08:19:16;;;;;;;4.18;1.75;;;5.50;92.90;;;;;;610369;236;26598;-63
2022/04/10 08:21:44;;;;;;;5.35;2.58;;;5.70;92.30;;;;;;610209;235;26660;-64
2022/04/10 08:24:11;;;;;;;1.42;1.42;;;5.70;92.30;;;;;;610123;236;26636;-65
2022/04/10 08:26:38;;;;;;;2.58;1.75;;;5.90;92.10;;;;;;610138;235;26650;-65
2022/04/10 08:29:05;;;;;;;1.60;1.37;;;6.00;91.70;;;;;;610125;235;26824;-65
2022/04/10 08:31:32;;;;;;;2.05;1.90;;;6.40;91.70;;;;;;610177;236;26652;-65
2022/04/10 08:34:00;;;;;;;3.58;2.25;;;6.30;91.00;;;;;;610130;236;27152;-66
2022/04/10 08:36:27;;;;;;;1.70;1.60;;;6.50;90.60;;;;;;610073;235;26663;-65
2022/04/10 08:38:56;;;;;;;2.08;1.52;;;6.60;90.70;;;;;;609818;236;26585;-65
2022/04/10 08:41:23;;;;;;;4.22;1.80;;;6.60;90.60;;;;;;609811;236;26819;-65
2022/04/10 08:43:50;;;;;;;5.28;2.10;;;6.60;90.10;;;;;;609786;235;26601;-65
2022/04/10 08:46:17;;;;;;;6.32;2.08;;;6.60;89.50;;;;;;609808;235;26879;-65
2022/04/10 08:48:44;;;;;;;6.22;2.08;;;6.90;89.00;;;;;;609837;235;26653;-65
2022/04/10 08:51:11;;;;;;;4.28;2.25;;;6.90;88.20;;;;;;609839;235;26557;-64
2022/04/10 08:53:39;;;;;;;3.00;1.65;;;7.30;87.70;;;;;;609876;236;26606;-64
2022/04/10 08:56:06;;;;;;;4.30;1.83;;;7.00;87.30;;;;;;609880;235;27314;-64
2022/04/10 08:58:34;;;;;;;4.10;2.10;;;7.00;87.80;;;;;;609905;235;26553;-64
2022/04/10 09:01:01;;;;;;;5.62;2.12;;;7.10;87.70;;;;;;609934;236;26642;-65
2022/04/10 09:03:29;;;;;;;4.75;2.17;;;7.20;87.20;;;;;;609844;236;27108;-65
2022/04/10 09:06:05;;;;;;;3.05;1.83;;;6.50;90.30;;;;;;609798;236;26601;-63
2022/04/10 09:08:33;;;;;;;2.90;1.60;;;6.40;90.30;;;;;;607184;235;26829;-66
2022/04/10 09:11:02;;;;;;;3.05;1.40;;;6.80;90.60;;;;;;603189;235;26634;-65
2022/04/10 09:13:35;;;;;;;10.48;2.08;;;6.80;90.60;;;;;;606956;233;26631;-66
2022/04/10 09:16:08;;;;;;;8.48;2.55;;;6.60;90.20;;;;;;605888;233;26683;-65
2022/04/10 09:18:57;;;;;;;1.98;1.60;;;6.60;89.90;;;;;;604064;237;26581;-65
2022/04/10 09:21:29;;;;;;;6.80;1.70;;;6.90;89.70;;;;;;603970;235;26589;-65
2022/04/10 09:24:02;;;;;;;3.70;1.87;;;7.10;89.90;;;;;;606567;235;26806;-66
2022/04/10 09:26:43;;;;;;;5.45;1.70;;;7.40;87.20;;;;;;605069;235;26609;-66
2022/04/10 09:29:10;;;;;;;5.35;2.03;;;7.30;87.10;;;;;;606120;233;26864;-66
2022/04/10 09:31:37;;;;;;;3.78;2.17;;;7.30;87.50;;;;;;606046;235;26576;-66
2022/04/10 09:34:04;;;;;;;7.00;2.12;;;7.20;88.10;;;;;;606706;235;26827;-66
2022/04/10 09:36:32;;;;;;;2.28;1.90;;;7.20;88.60;;;;;;604039;234;26601;-66
2022/04/10 09:39:00;;;;;;;9.95;2.87;;;6.90;88.40;;;;;;606766;233;26611;-66
2022/04/10 09:41:28;;;;;;;4.32;2.45;;;6.80;87.70;;;;;;605626;236;26588;-65
2022/04/10 09:44:12;;;;;;;5.62;2.45;;;6.80;87.70;;;;;;604192;236;26589;-67
2022/04/10 09:46:39;;;;;;;3.92;2.10;;;7.00;87.50;;;;;;610431;233;26893;-66
2022/04/10 09:49:22;;;;;;;5.78;2.37;;;7.20;86.20;;;;;;605857;235;26671;-65
2022/04/10 09:51:58;;;;;;;2.85;1.70;;;7.60;84.80;;;;;;605371;236;26588;-66
2022/04/10 09:54:25;;;;;;;4.55;2.35;;;7.60;84.80;;;;;;606013;234;26604;-65
2022/04/10 09:56:54;;;;;;;2.47;2.10;;;7.00;91.00;;;;;;605832;235;26660;-65
2022/04/10 09:59:21;;;;;;;5.85;2.58;;;7.00;91.00;;;;;;605540;234;26676;-64
2022/04/10 10:01:48;;;;;;;5.57;2.40;;;6.90;91.50;;;;;;604113;236;26655;-65
2022/04/10 10:04:15;;;;;;;7.70;2.70;;;6.80;91.50;;;;;;603892;234;27290;-66
2022/04/10 10:06:42;;;;;;;4.43;1.77;;;6.80;91.10;;;;;;607161;234;26653;-66
2022/04/10 10:09:09;;;;;;;7.97;2.65;;;6.90;91.50;;;;;;602793;238;26641;-66
2022/04/10 10:11:38;;;;;;;3.30;2.15;;;7.70;89.70;;;;;;604013;236;26655;-65
2022/04/10 10:14:06;;;;;;;4.75;2.40;;;7.80;86.50;;;;;;604325;236;26655;-66
2022/04/10 10:16:35;;;;;;;3.25;2.15;;;7.90;86.60;;;;;;605109;235;26875;-65
2022/04/10 10:19:02;;;;;;;7.43;2.03;;;7.90;86.30;;;;;;603029;237;26606;-65
2022/04/10 10:21:29;;;;;;;1.95;1.85;;;7.80;83.90;;;;;;605470;235;26879;-64
2022/04/10 10:23:56;;;;;;;4.35;2.60;;;7.60;84.20;;;;;;605914;233;26636;-65
2022/04/10 10:26:26;;;;;;;6.00;1.75;;;7.90;83.70;;;;;;606295;234;26605;-65
2022/04/10 10:29:03;;;;;;;3.70;1.98;;;8.10;81.40;;;;;;604551;234;26619;-65
2022/04/10 10:31:42;;;;;;;3.10;2.17;;;8.10;80.80;;;;;;605061;235;26667;-66
2022/04/10 10:34:11;;;;;;;5.97;2.17;;;7.80;81.90;;;;;;604919;236;26658;-66
2022/04/10 10:36:40;;;;;;;2.55;1.60;;;8.10;83.30;;;;;;606295;236;26572;-65
2022/04/10 10:39:09;;;;;;;2.22;1.83;;;8.20;81.50;;;;;;603945;235;26672;-65
2022/04/10 10:41:38;;;;;;;4.78;2.72;;;8.20;81.30;;;;;;603887;235;26577;-65
2022/04/10 10:44:14;;;;;;;6.47;2.53;;;8.20;81.20;;;;;;603363;237;26799;-64
2022/04/10 10:46:42;;;;;;;1209.10;124.00;;;8.30;78.90;;;;;;603844;237;26943;-64
2022/04/10 10:49:16;;;;;;;1999.90;722.92;;;8.80;78.80;;;;;;604362;235;26641;-64
2022/04/10 10:51:44;;;;;;;1999.90;766.92;;;8.80;76.90;;;;;;601970;237;26593;-64
2022/04/10 10:54:12;;;;;;;1999.90;508.10;;;9.50;76.80;;;;;;605327;236;26583;-63
2022/04/10 10:56:40;;;;;;;1527.72;127.10;;;9.40;76.80;;;;;;607592;236;26666;-66
2022/04/10 10:59:18;;;;;;;261.58;24.25;;;9.20;73.10;;;;;;603375;236;26830;-66
2022/04/10 11:01:53;;;;;;;13.80;7.22;;;9.00;73.10;;;;;;603613;236;27178;-66
2022/04/10 11:04:20;;;;;;;13.52;7.57;;;8.70;70.90;;;;;;609723;235;26639;-66
2022/04/10 11:06:48;;;;;;;19.77;9.70;;;9.20;72.40;;;;;;603215;235;26669;-65
2022/04/10 11:09:24;;;;;;;15.52;7.45;;;9.30;71.30;;;;;;607833;236;26584;-65
2022/04/10 11:11:52;;;;;;;20.12;9.73;;;9.30;71.30;;;;;;608673;236;26832;-65
2022/04/10 11:14:39;;;;;;;19.40;9.00;;;9.30;71.40;;;;;;601824;236;26627;-66
2022/04/10 11:17:15;;;;;;;22.42;9.57;;;9.20;71.20;;;;;;601099;237;26903;-66
2022/04/10 11:19:43;;;;;;;22.27;8.43;;;8.90;71.80;;;;;;601136;237;26629;-66
2022/04/10 11:22:10;;;;;;;19.77;8.63;;;8.60;71.50;;;;;;601182;237;26598;-65
2022/04/10 11:24:37;;;;;;;12.73;6.12;;;8.30;72.50;;;;;;600975;239;26857;-65
2022/04/10 11:27:05;;;;;;;18.80;7.45;;;8.20;72.20;;;;;;601205;239;26915;-66
2022/04/10 11:29:33;;;;;;;16.17;7.93;;;8.20;70.20;;;;;;601209;237;26843;-66
2022/04/10 11:31:59;;;;;;;13.65;7.00;;;8.40;70.80;;;;;;601559;237;26654;-66
2022/04/10 11:34:28;;;;;;;16.20;6.65;;;8.30;72.00;;;;;;601078;233;26955;-65
2022/04/10 11:36:54;;;;;;;13.55;6.55;;;8.20;74.80;;;;;;602677;237;26662;-65
2022/04/10 11:39:25;;;;;;;14.13;5.60;;;7.00;85.20;;;;;;602729;237;27299;-66
2022/04/10 11:41:52;;;;;;;11.12;5.70;;;6.10;92.20;;;;;;602715;237;26598;-65
2022/04/10 11:44:20;;;;;;;14.77;5.32;;;5.80;94.60;;;;;;602728;237;26609;-66
2022/04/10 11:46:47;;;;;;;9.48;3.60;;;5.80;94.50;;;;;;602504;237;26630;-66
2022/04/10 11:49:14;;;;;;;8.02;3.58;;;5.90;95.50;;;;;;602444;239;26554;-65
2022/04/10 11:51:57;;;;;;;9.90;4.20;;;6.00;95.00;;;;;;602235;239;26787;-65
2022/04/10 11:54:27;;;;;;;10.50;3.33;;;6.10;94.80;;;;;;602340;237;26784;-65
2022/04/10 11:56:54;;;;;;;6.62;3.00;;;6.60;94.70;;;;;;602098;239;26582;-65
2022/04/10 11:59:21;;;;;;;9.02;3.83;;;7.10;94.10;;;;;;602175;237;26805;-65
2022/04/10 12:01:49;;;;;;;6.18;3.10;;;7.70;92.80;;;;;;602195;237;26549;-65
2022/04/10 12:04:16;;;;;;;5.87;2.87;;;7.80;91.90;;;;;;602150;237;26989;-65
2022/04/10 12:06:43;;;;;;;9.30;3.60;;;7.90;87.30;;;;;;602101;239;26626;-66
2022/04/10 12:09:10;;;;;;;7.40;2.65;;;7.80;86.30;;;;;;602204;238;26585;-65
2022/04/10 12:11:39;;;;;;;8.65;3.00;;;7.60;86.50;;;;;;602120;239;26575;-66
2022/04/10 12:14:22;;;;;;;6.70;3.00;;;7.40;88.60;;;;;;601709;239;26601;-66
2022/04/10 12:16:52;;;;;;;9.18;3.25;;;7.30;89.90;;;;;;601880;237;26836;-66
2022/04/10 12:19:28;;;;;;;8.63;2.95;;;7.50;84.10;;;;;;601893;239;26613;-66
2022/04/10 12:21:55;;;;;;;6.50;3.28;;;7.50;84.70;;;;;;601888;237;26591;-66
2022/04/10 12:24:23;;;;;;;7.87;2.87;;;7.60;84.20;;;;;;601512;239;26638;-66
2022/04/10 12:26:50;;;;;;;5.75;2.53;;;7.60;84.20;;;;;;601535;238;26654;-66
2022/04/10 12:29:18;;;;;;;4.37;2.95;;;7.70;83.80;;;;;;601593;237;26634;-65
2022/04/10 12:31:46;;;;;;;6.18;2.55;;;7.80;85.20;;;;;;601548;239;26670;-66
2022/04/10 12:34:13;;;;;;;5.28;1.98;;;8.00;84.20;;;;;;601465;239;26618;-66
2022/04/10 12:36:45;;;;;;;3.17;2.10;;;8.00;84.00;;;;;;601602;237;26884;-65
2022/04/10 12:39:12;;;;;;;5.12;2.28;;;8.10;81.80;;;;;;601574;238;26866;-66
2022/04/10 12:41:40;;;;;;;3.85;1.85;;;8.10;81.40;;;;;;600174;239;26677;-67
2022/04/10 12:44:10;;;;;;;3.35;2.17;;;8.10;78.80;;;;;;601460;237;26662;-65
2022/04/10 12:46:36;;;;;;;3.67;2.08;;;8.10;79.00;;;;;;601480;238;26914;-66
2022/04/10 12:49:11;;;;;;;2.30;1.67;;;8.10;81.90;;;;;;603103;237;26646;-65
2022/04/10 12:51:53;;;;;;;3.47;1.75;;;8.30;79.60;;;;;;602635;238;26835;-65
2022/04/10 12:54:33;;;;;;;5.03;2.35;;;8.00;78.40;;;;;;602382;238;26603;-66
2022/04/10 12:57:00;;;;;;;4.90;2.00;;;8.20;79.00;;;;;;602243;239;26677;-66
2022/04/10 12:59:49;;;;;;;5.32;2.00;;;8.30;75.00;;;;;;602116;237;26617;-66
2022/04/10 13:02:22;;;;;;;3.70;1.83;;;8.20;73.20;;;;;;602107;237;26831;-66
2022/04/10 13:04:55;;;;;;;3.55;1.83;;;8.10;74.40;;;;;;602065;237;26605;-66
2022/04/10 13:07:23;;;;;;;4.32;2.10;;;7.40;83.70;;;;;;601540;237;26601;-66
2022/04/10 13:10:07;;;;;;;3.95;1.80;;;7.40;83.60;;;;;;601820;237;26585;-65